createdAt,value
2023-02-12T00:02:11.474Z,98822.66
2023-02-12T00:04:39.401Z,98818.44
2023-02-12T00:07:08.318Z,98820.56
2023-02-12T00:09:35.848Z,98825.19
2023-02-12T00:12:03.343Z,98814.31
2023-02-12T00:14:30.910Z,98812.47
2023-02-12T00:16:58.414Z,98811.47
2023-02-12T00:19:26.031Z,98815.59
2023-02-12T00:21:53.553Z,98814.56
2023-02-12T00:24:22.615Z,98815.16
2023-02-12T00:26:51.040Z,98814.25
2023-02-12T00:29:18.580Z,98813.25
2023-02-12T00:31:46.149Z,98815.34
2023-02-12T00:34:14.519Z,98824.34
2023-02-12T00:36:42.060Z,98823.34
2023-02-12T00:39:11.480Z,98821.66
2023-02-12T00:41:40.427Z,98832.78
2023-02-12T00:44:07.899Z,98825.78
2023-02-12T00:46:35.500Z,98828.97
2023-02-12T00:49:03.073Z,98835.88
2023-02-12T00:51:30.617Z,98830.66
2023-02-12T00:53:58.105Z,98833.22
2023-02-12T00:56:25.833Z,98840.88
2023-02-12T00:58:54.695Z,98839.00
2023-02-12T01:01:22.328Z,98842.72
2023-02-12T01:03:49.896Z,98839.88
2023-02-12T01:06:17.455Z,98851.47
2023-02-12T01:08:44.975Z,98844.34
2023-02-12T01:11:14.390Z,98852.75
2023-02-12T01:13:41.974Z,98852.56
2023-02-12T01:16:15.712Z,98850.72
2023-02-12T01:18:43.445Z,98854.16
2023-02-12T01:21:12.484Z,98858.78
2023-02-12T01:23:40.132Z,98849.78
2023-02-12T01:26:10.597Z,98854.25
2023-02-12T01:28:38.538Z,98841.69
2023-02-12T01:31:11.449Z,98845.66
2023-02-12T01:33:39.271Z,98844.31
2023-02-12T01:36:07.801Z,98852.56
2023-02-12T01:38:35.813Z,98852.56
2023-02-12T01:41:04.348Z,98848.78
2023-02-12T01:43:31.867Z,98853.38
2023-02-12T01:46:01.477Z,98848.16
2023-02-12T01:48:33.945Z,98851.53
2023-02-12T01:51:03.810Z,98854.81
2023-02-12T01:53:34.526Z,98858.28
2023-02-12T01:56:02.945Z,98854.28
2023-02-12T01:58:35.090Z,98848.06
2023-02-12T02:01:03.946Z,98857.34
2023-02-12T02:03:33.156Z,98865.09
2023-02-12T02:06:02.396Z,98863.00
2023-02-12T02:08:30.330Z,98866.94
2023-02-12T02:10:57.808Z,98871.22
2023-02-12T02:13:42.939Z,98864.16
2023-02-12T02:16:16.324Z,98867.38
2023-02-12T02:18:51.333Z,98864.91
2023-02-12T02:21:52.596Z,98862.25
2023-02-12T02:25:01.489Z,98863.94
2023-02-12T02:27:37.111Z,98858.78
2023-02-12T02:30:24.261Z,98856.00
2023-02-12T02:32:57.174Z,98857.53
2023-02-12T02:35:29.228Z,98856.75
2023-02-12T02:38:04.228Z,98852.47
2023-02-12T02:40:36.267Z,98851.88
2023-02-12T02:43:07.608Z,98857.09
2023-02-12T02:45:39.405Z,98860.63
2023-02-12T02:48:11.571Z,98854.59
2023-02-12T02:50:42.190Z,98864.75
2023-02-12T02:53:13.144Z,98866.59
2023-02-12T02:55:44.971Z,98870.56
2023-02-12T02:58:15.619Z,98861.06
2023-02-12T03:00:47.208Z,98859.91
2023-02-12T03:03:19.991Z,98865.97
2023-02-12T03:05:50.806Z,98866.75
2023-02-12T03:08:24.025Z,98866.81
2023-02-12T03:10:54.328Z,98873.81
2023-02-12T03:13:24.779Z,98872.53
2023-02-12T03:15:56.199Z,98873.59
2023-02-12T03:18:26.515Z,98877.38
2023-02-12T03:20:56.690Z,98878.63
2023-02-12T03:23:26.614Z,98886.63
2023-02-12T03:25:57.980Z,98895.19
2023-02-12T03:28:28.775Z,98895.44
2023-02-12T03:31:09.488Z,98891.28
2023-02-12T03:33:43.413Z,98893.06
2023-02-12T03:36:20.444Z,98892.38
2023-02-12T03:38:50.921Z,98900.75
2023-02-12T03:41:22.852Z,98898.91
2023-02-12T03:43:52.795Z,98903.19
2023-02-12T03:46:24.449Z,98902.09
2023-02-12T03:49:00.498Z,98902.16
2023-02-12T03:51:31.512Z,98903.84
2023-02-12T03:53:59.167Z,98906.25
2023-02-12T03:56:33.043Z,98903.63
2023-02-12T03:59:00.782Z,98899.28
2023-02-12T04:01:29.819Z,98902.72
2023-02-12T04:03:57.724Z,98901.63
2023-02-12T04:06:28.725Z,98891.91
2023-02-12T04:09:00.177Z,98902.94
2023-02-12T04:11:32.000Z,98902.63
2023-02-12T04:14:12.345Z,98906.25
2023-02-12T04:16:45.497Z,98904.00
2023-02-12T04:19:17.654Z,98897.38
2023-02-12T04:21:54.871Z,98910.00
2023-02-12T04:24:29.481Z,98917.59
2023-02-12T04:27:02.533Z,98919.13
2023-02-12T04:29:34.338Z,98918.13
2023-02-12T04:32:06.588Z,98923.19
2023-02-12T04:34:36.747Z,98927.81
2023-02-12T04:37:07.278Z,98925.09
2023-02-12T04:39:38.083Z,98927.06
2023-02-12T04:42:05.869Z,98936.19
2023-02-12T04:44:35.752Z,98936.34
2023-02-12T04:47:04.745Z,98930.38
2023-02-12T04:49:32.262Z,98934.72
2023-02-12T04:51:59.767Z,98948.53
2023-02-12T04:54:27.288Z,98939.94
2023-02-12T04:56:54.812Z,98943.56
2023-02-12T04:59:22.336Z,98940.94
2023-02-12T05:01:50.069Z,98947.16
2023-02-12T05:04:19.591Z,98942.09
2023-02-12T05:06:47.542Z,98946.31
2023-02-12T05:09:17.021Z,98943.78
2023-02-12T05:11:44.641Z,98945.53
2023-02-12T05:14:12.285Z,98951.81
2023-02-12T05:16:39.913Z,98946.31
2023-02-12T05:19:09.375Z,98946.00
2023-02-12T05:21:38.607Z,98945.06
2023-02-12T05:24:06.864Z,98946.25
2023-02-12T05:26:34.800Z,98930.66
2023-02-12T05:29:03.312Z,98943.09
2023-02-12T05:31:30.996Z,98950.16
2023-02-12T05:33:58.626Z,98952.44
2023-02-12T05:36:26.567Z,98953.53
2023-02-12T05:38:59.256Z,98959.13
2023-02-12T05:41:26.895Z,98953.97
2023-02-12T05:43:54.839Z,98941.19
2023-02-12T05:46:23.053Z,98953.31
2023-02-12T05:48:50.739Z,98949.94
2023-02-12T05:51:21.719Z,98941.88
2023-02-12T05:53:50.628Z,98955.81
2023-02-12T05:56:22.105Z,98959.81
2023-02-12T05:58:54.190Z,98969.94
2023-02-12T06:01:23.833Z,98962.13
2023-02-12T06:03:51.471Z,98967.19
2023-02-12T06:06:19.054Z,98964.97
2023-02-12T06:08:48.724Z,98965.63
2023-02-12T06:11:17.463Z,98969.00
2023-02-12T06:13:46.336Z,98972.47
2023-02-12T06:16:21.018Z,98975.69
2023-02-12T06:18:49.108Z,98979.31
2023-02-12T06:21:17.062Z,98978.41
2023-02-12T06:23:44.724Z,98971.00
2023-02-12T06:26:12.257Z,98976.06
2023-02-12T06:28:39.897Z,98984.97
2023-02-12T06:31:18.720Z,98990.50
2023-02-12T06:33:46.303Z,98988.81
2023-02-12T06:36:13.895Z,98993.88
2023-02-12T06:38:41.531Z,99003.16
2023-02-12T06:41:09.071Z,99009.63
2023-02-12T06:43:36.821Z,98990.59
2023-02-12T06:46:05.832Z,99002.31
2023-02-12T06:48:34.880Z,99017.53
2023-02-12T06:51:06.866Z,99016.53
2023-02-12T06:53:35.536Z,99018.31
2023-02-12T06:56:03.862Z,99015.22
2023-02-12T06:58:31.808Z,99021.28
2023-02-12T07:01:10.845Z,99000.81
2023-02-12T07:03:40.273Z,99014.63
2023-02-12T07:06:08.149Z,99005.41
2023-02-12T07:08:35.715Z,99021.72
2023-02-12T07:11:03.276Z,99014.63
2023-02-12T07:13:31.005Z,99015.84
2023-02-12T07:15:58.888Z,99014.91
2023-02-12T07:18:26.490Z,99013.53
2023-02-12T07:20:57.163Z,99017.22
2023-02-12T07:23:24.659Z,99014.94
2023-02-12T07:25:56.514Z,99029.19
2023-02-12T07:28:24.630Z,99025.13
2023-02-12T07:30:52.268Z,99026.38
2023-02-12T07:33:20.317Z,99023.44
2023-02-12T07:35:47.930Z,99019.19
2023-02-12T07:38:16.777Z,99028.44
2023-02-12T07:40:44.318Z,99028.09
2023-02-12T07:43:12.101Z,99027.03
2023-02-12T07:45:39.694Z,99028.16
2023-02-12T07:48:07.506Z,99027.03
2023-02-12T07:50:35.093Z,99026.19
2023-02-12T07:53:02.664Z,99027.34
2023-02-12T07:55:31.507Z,99025.72
2023-02-12T07:57:59.053Z,99018.00
2023-02-12T08:00:26.945Z,99021.72
2023-02-12T08:02:54.992Z,99020.56
2023-02-12T08:05:22.501Z,99022.59
2023-02-12T08:07:50.194Z,99022.75
2023-02-12T08:10:22.331Z,99019.13
2023-02-12T08:12:51.269Z,99021.59
2023-02-12T08:15:18.943Z,99028.28
2023-02-12T08:17:46.451Z,99031.16
2023-02-12T08:20:14.278Z,99029.88
2023-02-12T08:22:41.823Z,99017.91
2023-02-12T08:25:09.647Z,99027.97
2023-02-12T08:27:37.139Z,99026.16
2023-02-12T08:30:06.856Z,99024.13
2023-02-12T08:32:34.436Z,99027.50
2023-02-12T08:35:01.933Z,99025.34
2023-02-12T08:37:29.452Z,99028.72
2023-02-12T08:39:57.047Z,99027.69
2023-02-12T08:42:25.684Z,99027.44
2023-02-12T08:44:53.153Z,99031.56
2023-02-12T08:47:22.261Z,99023.81
2023-02-12T08:49:49.841Z,99027.16
2023-02-12T08:52:19.391Z,99024.53
2023-02-12T08:54:46.859Z,99024.94
2023-02-12T08:57:14.346Z,99026.56
2023-02-12T08:59:41.888Z,99014.38
2023-02-12T09:02:10.725Z,99008.56
2023-02-12T09:04:40.982Z,99032.63
2023-02-12T09:07:10.874Z,99031.03
2023-02-12T09:09:38.553Z,99019.91
2023-02-12T09:12:06.754Z,99025.06
2023-02-12T09:14:34.254Z,99024.69
2023-02-12T09:17:01.986Z,99030.19
2023-02-12T09:19:29.571Z,99025.59
2023-02-12T09:22:01.625Z,99026.53
2023-02-12T09:24:29.204Z,99026.50
2023-02-12T09:26:56.822Z,99024.56
2023-02-12T09:29:24.476Z,99017.06
2023-02-12T09:31:52.164Z,99025.97
2023-02-12T09:34:20.142Z,99016.56
2023-02-12T09:36:47.719Z,99028.72
2023-02-12T09:39:16.603Z,99023.34
2023-02-12T09:41:55.292Z,99025.38
2023-02-12T09:44:24.004Z,99022.97
2023-02-12T09:46:54.948Z,99028.19
2023-02-12T09:49:33.310Z,99019.16
2023-02-12T09:52:01.269Z,99021.41
2023-02-12T09:54:35.394Z,99018.88
2023-02-12T09:57:07.386Z,99028.31
2023-02-12T09:59:37.656Z,99029.09
2023-02-12T10:02:08.045Z,99011.16
2023-02-12T10:04:35.622Z,99022.19
2023-02-12T10:07:07.999Z,99023.16
2023-02-12T10:09:58.982Z,99014.00
2023-02-12T10:12:32.167Z,99016.03
2023-02-12T10:15:25.649Z,99014.88
2023-02-12T10:17:58.588Z,99009.81
2023-02-12T10:20:52.438Z,99007.59
2023-02-12T10:23:48.262Z,99010.97
2023-02-12T10:26:21.858Z,99008.09
2023-02-12T10:28:50.578Z,99008.38
2023-02-12T10:31:23.400Z,99009.81
2023-02-12T10:33:52.678Z,99013.09
2023-02-12T10:36:32.143Z,99011.50
2023-02-12T10:39:03.478Z,99014.72
2023-02-12T10:41:34.070Z,99010.53
2023-02-12T10:44:01.574Z,99009.56
2023-02-12T10:46:31.403Z,99009.84
2023-02-12T10:48:59.767Z,99005.38
2023-02-12T10:51:44.781Z,98992.47
2023-02-12T10:54:35.973Z,99003.13
2023-02-12T10:57:11.328Z,99010.63
2023-02-12T10:59:38.998Z,99001.22
2023-02-12T11:02:27.504Z,99000.25
2023-02-12T11:04:56.666Z,99005.00
2023-02-12T11:07:24.922Z,99006.53
2023-02-12T11:09:54.828Z,99000.78
2023-02-12T11:12:31.429Z,98997.63
2023-02-12T11:15:00.546Z,98994.41
2023-02-12T11:17:33.792Z,98987.56
2023-02-12T11:20:24.728Z,98991.06
2023-02-12T11:22:57.311Z,98985.06
2023-02-12T11:25:26.712Z,98987.25
2023-02-12T11:28:15.869Z,98988.56
2023-02-12T11:30:51.181Z,98985.56
2023-02-12T11:33:25.258Z,98984.47
2023-02-12T11:35:54.526Z,98978.59
2023-02-12T11:38:26.078Z,98977.03
2023-02-12T11:40:58.544Z,98968.75
2023-02-12T11:43:29.397Z,98973.44
2023-02-12T11:45:57.820Z,98983.53
2023-02-12T11:48:28.851Z,98976.56
2023-02-12T11:50:58.356Z,98974.75
2023-02-12T11:53:28.835Z,98984.00
2023-02-12T11:55:59.285Z,98979.31
2023-02-12T11:58:29.295Z,98981.81
2023-02-12T12:01:11.200Z,98981.72
2023-02-12T12:03:46.414Z,98978.59
2023-02-12T12:06:26.768Z,98978.00
2023-02-12T12:08:58.216Z,98972.47
2023-02-12T12:11:28.387Z,98978.38
2023-02-12T12:14:00.656Z,98968.81
2023-02-12T12:16:50.384Z,98969.69
2023-02-12T12:19:50.168Z,98974.78
2023-02-12T12:22:36.602Z,98971.69
2023-02-12T12:25:11.616Z,98961.22
2023-02-12T12:28:01.775Z,98968.31
2023-02-12T12:30:39.455Z,98967.75
2023-02-12T12:33:13.657Z,98965.38
2023-02-12T12:35:49.880Z,98955.41
2023-02-12T12:38:24.107Z,98965.59
2023-02-12T12:41:01.858Z,98964.78
2023-02-12T12:43:37.316Z,98968.38
2023-02-12T12:46:15.710Z,98962.44
2023-02-12T12:49:04.105Z,98967.00
2023-02-12T12:51:42.300Z,98964.34
2023-02-12T12:54:20.159Z,98964.44
2023-02-12T12:56:56.826Z,98961.09
2023-02-12T12:59:48.382Z,98963.16
2023-02-12T13:02:54.232Z,98965.16
2023-02-12T13:05:56.308Z,98965.75
2023-02-12T13:08:38.702Z,98957.59
2023-02-12T13:11:14.634Z,98948.03
2023-02-12T13:13:45.250Z,98964.22
2023-02-12T13:16:17.504Z,98953.53
2023-02-12T13:18:53.489Z,98962.66
2023-02-12T13:21:33.642Z,98952.59
2023-02-12T13:24:06.510Z,98953.88
2023-02-12T13:26:49.555Z,98966.38
2023-02-12T13:29:20.277Z,98958.69
2023-02-12T13:31:51.134Z,98962.78
2023-02-12T13:34:21.277Z,98965.53
2023-02-12T13:36:50.303Z,98965.53
2023-02-12T13:39:26.374Z,98961.34
2023-02-12T13:42:02.114Z,98964.09
2023-02-12T13:44:36.694Z,98959.75
2023-02-12T13:47:10.614Z,98964.56
2023-02-12T13:49:45.370Z,98968.06
2023-02-12T13:52:18.305Z,98951.63
2023-02-12T13:54:50.992Z,98959.66
2023-02-12T13:57:20.816Z,98959.19
2023-02-12T13:59:49.906Z,98954.16
2023-02-12T14:02:43.751Z,98952.81
2023-02-12T14:05:22.822Z,98954.88
2023-02-12T14:07:52.030Z,98960.72
2023-02-12T14:10:25.061Z,98957.50
2023-02-12T14:12:53.632Z,98955.09
2023-02-12T14:15:39.912Z,98967.09
2023-02-12T14:18:23.939Z,98955.09
2023-02-12T14:21:37.768Z,98960.09
2023-02-12T14:24:42.831Z,98958.19
2023-02-12T14:27:22.822Z,98957.47
2023-02-12T14:30:27.359Z,98962.38
2023-02-12T14:33:00.855Z,98954.22
2023-02-12T14:35:35.979Z,98956.38
2023-02-12T14:38:10.059Z,98946.44
2023-02-12T14:40:42.601Z,98950.28
2023-02-12T14:43:55.931Z,98943.09
2023-02-12T14:46:45.880Z,98939.22
2023-02-12T14:49:22.482Z,98942.91
2023-02-12T14:51:55.326Z,98945.41
2023-02-12T14:54:29.173Z,98943.81
2023-02-12T14:56:57.341Z,98934.13
2023-02-12T14:59:27.515Z,98952.09
2023-02-12T15:01:56.003Z,98942.16
2023-02-12T15:04:27.168Z,98944.03
2023-02-12T15:06:58.238Z,98939.13
2023-02-12T15:09:31.311Z,98938.91
2023-02-12T15:12:03.046Z,98939.13
2023-02-12T15:14:33.605Z,98933.34
2023-02-12T15:17:05.041Z,98930.84
2023-02-12T15:19:40.826Z,98940.03
2023-02-12T15:22:19.854Z,98929.28
2023-02-12T15:24:47.470Z,98934.41
2023-02-12T15:27:15.542Z,98931.00
2023-02-12T15:29:47.289Z,98936.00
2023-02-12T15:32:19.324Z,98931.91
2023-02-12T15:34:50.006Z,98934.34
2023-02-12T15:37:22.763Z,98932.78
2023-02-12T15:39:50.757Z,98929.88
2023-02-12T15:42:30.120Z,98920.34
2023-02-12T15:45:24.103Z,98924.94
2023-02-12T15:48:05.248Z,98923.78
2023-02-12T15:50:34.106Z,98928.34
2023-02-12T15:53:01.746Z,98920.38
2023-02-12T15:55:33.299Z,98930.66
2023-02-12T15:58:01.871Z,98924.91
2023-02-12T16:00:36.362Z,98929.63
2023-02-12T16:03:03.951Z,98926.91
2023-02-12T16:05:32.611Z,98934.44
2023-02-12T16:08:01.673Z,98930.66
2023-02-12T16:10:29.275Z,98934.22
2023-02-12T16:12:56.842Z,98933.97
2023-02-12T16:15:27.972Z,98925.56
2023-02-12T16:17:58.427Z,98933.84
2023-02-12T16:20:27.215Z,98941.28
2023-02-12T16:22:55.490Z,98935.69
2023-02-12T16:25:26.384Z,98946.31
2023-02-12T16:27:59.277Z,98946.84
2023-02-12T16:30:29.733Z,98946.13
2023-02-12T16:32:58.983Z,98943.16
2023-02-12T16:35:29.500Z,98950.00
2023-02-12T16:38:01.557Z,98948.22
2023-02-12T16:40:36.313Z,98957.09
2023-02-12T16:43:13.115Z,98953.53
2023-02-12T16:45:43.002Z,98962.25
2023-02-12T16:48:18.110Z,98957.56
2023-02-12T16:50:48.911Z,98964.16
2023-02-12T16:53:33.000Z,98966.22
2023-02-12T16:56:01.495Z,98970.69
2023-02-12T16:58:29.469Z,98977.22
2023-02-12T17:00:58.666Z,98972.50
2023-02-12T17:03:27.620Z,98982.22
2023-02-12T17:05:55.370Z,98984.44
2023-02-12T17:08:24.674Z,98983.00
2023-02-12T17:10:53.251Z,98973.97
2023-02-12T17:13:21.763Z,98980.13
2023-02-12T17:15:52.639Z,98993.44
2023-02-12T17:18:20.506Z,99000.34
2023-02-12T17:20:54.503Z,98990.22
2023-02-12T17:23:22.297Z,98996.63
2023-02-12T17:25:49.986Z,99000.00
2023-02-12T17:28:17.570Z,99009.56
2023-02-12T17:30:45.299Z,99006.41
2023-02-12T17:33:12.951Z,99018.44
2023-02-12T17:35:40.704Z,99011.50
2023-02-12T17:38:09.878Z,99006.94
2023-02-12T17:40:37.661Z,99012.16
2023-02-12T17:43:05.964Z,99009.38
2023-02-12T17:45:33.683Z,99004.25
2023-02-12T17:48:02.221Z,99002.63
2023-02-12T17:50:29.934Z,99013.66
2023-02-12T17:52:57.586Z,99015.19
2023-02-12T17:55:26.430Z,99011.44
2023-02-12T17:57:54.900Z,99012.00
2023-02-12T18:00:23.183Z,99016.31
2023-02-12T18:02:51.094Z,99006.78
2023-02-12T18:05:18.674Z,99017.41
2023-02-12T18:07:46.189Z,99021.69
2023-02-12T18:10:13.759Z,99026.16
2023-02-12T18:12:42.619Z,99027.41
2023-02-12T18:15:11.033Z,99028.06
2023-02-12T18:17:38.710Z,99025.22
2023-02-12T18:20:07.848Z,99026.75
2023-02-12T18:22:36.244Z,99018.09
2023-02-12T18:25:04.049Z,99017.41
2023-02-12T18:27:31.571Z,99014.84
2023-02-12T18:30:01.022Z,99000.03
2023-02-12T18:32:28.501Z,99015.91
2023-02-12T18:34:56.034Z,99010.94
2023-02-12T18:37:23.591Z,99014.34
2023-02-12T18:39:51.091Z,99023.19
2023-02-12T18:42:18.647Z,99017.31
2023-02-12T18:44:46.148Z,99027.69
2023-02-12T18:47:15.009Z,99022.22
2023-02-12T18:49:42.506Z,99020.78
2023-02-12T18:52:10.007Z,99017.56
2023-02-12T18:54:37.783Z,99020.44
2023-02-12T18:57:05.294Z,99023.66
2023-02-12T18:59:32.840Z,99014.19
2023-02-12T19:02:00.716Z,99013.69
2023-02-12T19:04:30.244Z,99013.84
2023-02-12T19:06:57.840Z,99018.59
2023-02-12T19:09:27.152Z,99011.91
2023-02-12T19:11:56.419Z,99017.63
2023-02-12T19:14:25.319Z,99016.56
2023-02-12T19:16:53.809Z,99020.50
2023-02-12T19:19:21.948Z,99025.63
2023-02-12T19:21:51.175Z,99023.69
2023-02-12T19:24:19.026Z,99020.34
2023-02-12T19:26:46.630Z,99026.31
2023-02-12T19:29:14.777Z,99023.59
2023-02-12T19:31:45.602Z,99028.84
2023-02-12T19:34:16.928Z,99025.56
2023-02-12T19:36:44.942Z,99012.06
2023-02-12T19:39:15.698Z,99033.50
2023-02-12T19:41:43.661Z,99036.84
2023-02-12T19:44:13.273Z,99036.03
2023-02-12T19:46:41.281Z,99033.25
2023-02-12T19:49:12.493Z,99033.59
2023-02-12T19:51:41.754Z,99032.09
2023-02-12T19:54:10.251Z,99024.91
2023-02-12T19:56:39.358Z,99028.19
2023-02-12T19:59:08.483Z,99025.16
2023-02-12T20:01:36.361Z,99032.31
2023-02-12T20:04:04.532Z,99017.06
2023-02-12T20:06:34.934Z,99016.63
2023-02-12T20:09:02.861Z,99025.56
2023-02-12T20:11:31.715Z,99020.91
2023-02-12T20:14:02.178Z,99032.88
2023-02-12T20:16:37.557Z,99033.75
2023-02-12T20:19:07.982Z,99040.81
2023-02-12T20:21:35.614Z,99040.47
2023-02-12T20:24:03.373Z,99044.25
2023-02-12T20:26:31.705Z,99029.19
2023-02-12T20:29:04.629Z,99039.69
2023-02-12T20:31:34.942Z,99039.28
2023-02-12T20:34:04.507Z,99042.50
2023-02-12T20:36:33.020Z,99043.81
2023-02-12T20:39:00.947Z,99048.72
2023-02-12T20:41:28.768Z,99039.13
2023-02-12T20:43:56.411Z,99037.03
2023-02-12T20:46:25.745Z,99039.38
2023-02-12T20:48:54.153Z,99035.41
2023-02-12T20:51:23.412Z,99042.66
2023-02-12T20:53:51.463Z,99037.25
2023-02-12T20:56:21.152Z,99037.50
2023-02-12T20:58:48.734Z,99046.41
2023-02-12T21:01:18.649Z,99045.19
2023-02-12T21:03:48.034Z,99038.19
2023-02-12T21:06:16.082Z,99028.19
2023-02-12T21:08:43.820Z,99035.94
2023-02-12T21:11:15.209Z,99037.88
2023-02-12T21:13:50.424Z,99035.34
2023-02-12T21:16:28.348Z,99040.28
2023-02-12T21:18:57.409Z,99036.00
2023-02-12T21:21:26.957Z,99039.19
2023-02-12T21:23:56.657Z,99024.63
2023-02-12T21:26:26.497Z,99036.59
2023-02-12T21:28:54.425Z,99034.72
2023-02-12T21:31:23.735Z,99029.94
2023-02-12T21:33:52.595Z,99027.78
2023-02-12T21:36:22.940Z,99035.50
2023-02-12T21:38:51.253Z,99035.44
2023-02-12T21:41:21.086Z,99029.91
2023-02-12T21:43:51.109Z,99031.97
2023-02-12T21:46:19.777Z,99032.19
2023-02-12T21:48:47.609Z,99032.72
2023-02-12T21:51:19.857Z,99033.72
2023-02-12T21:53:49.498Z,99028.69
2023-02-12T21:56:17.900Z,99028.06
2023-02-12T21:58:45.834Z,99034.47
2023-02-12T22:01:16.689Z,99032.19
2023-02-12T22:03:45.212Z,99026.41
2023-02-12T22:06:14.565Z,99024.13
2023-02-12T22:08:42.105Z,99027.19
2023-02-12T22:11:12.520Z,99027.19
2023-02-12T22:13:40.790Z,99023.81
2023-02-12T22:16:10.083Z,99026.59
2023-02-12T22:18:38.089Z,99031.09
2023-02-12T22:21:07.420Z,99027.13
2023-02-12T22:23:35.865Z,99022.13
2023-02-12T22:26:07.333Z,99030.81
2023-02-12T22:28:41.020Z,99032.13
2023-02-12T22:31:09.204Z,99025.59
2023-02-12T22:33:36.927Z,99024.56
2023-02-12T22:36:05.400Z,99034.19
2023-02-12T22:38:34.148Z,99035.66
2023-02-12T22:41:01.828Z,99030.28
2023-02-12T22:43:30.440Z,99026.91
2023-02-12T22:45:59.559Z,99032.56
2023-02-12T22:48:29.301Z,99033.34
2023-02-12T22:50:57.895Z,99027.19
2023-02-12T22:53:26.370Z,99031.16
2023-02-12T22:55:54.086Z,99033.22
2023-02-12T22:58:21.618Z,99040.31
2023-02-12T23:00:49.214Z,99024.97
2023-02-12T23:03:18.109Z,99031.88
2023-02-12T23:05:45.623Z,99025.97
2023-02-12T23:08:13.172Z,99039.84
2023-02-12T23:10:40.692Z,99041.69
2023-02-12T23:13:09.413Z,99039.53
2023-02-12T23:15:38.151Z,99034.09
2023-02-12T23:18:05.813Z,99029.56
2023-02-12T23:20:34.714Z,99028.56
2023-02-12T23:23:02.424Z,99040.84
2023-02-12T23:25:29.976Z,99029.59
2023-02-12T23:27:57.539Z,99033.13
2023-02-12T23:30:25.094Z,99032.41
2023-02-12T23:32:52.620Z,99029.50
2023-02-12T23:35:20.141Z,99021.97
2023-02-12T23:37:48.976Z,99024.44
2023-02-12T23:40:16.845Z,99036.72
2023-02-12T23:42:46.437Z,99025.97
2023-02-12T23:45:14.583Z,99035.53
2023-02-12T23:47:42.119Z,99035.53
2023-02-12T23:50:10.479Z,99029.34
2023-02-12T23:52:38.032Z,99021.69
2023-02-12T23:55:07.692Z,99024.50
2023-02-12T23:57:35.487Z,99024.72
